createdAt,value
2023-03-07T00:09:06.466Z,989.1
2023-03-07T00:19:06.439Z,989.1
2023-03-07T00:29:06.419Z,989.1
2023-03-07T00:39:06.553Z,989
2023-03-07T00:49:06.362Z,988.9
2023-03-07T00:59:06.341Z,988.8
2023-03-07T01:09:06.330Z,988.7
2023-03-07T01:19:06.293Z,988.6
2023-03-07T01:29:06.271Z,988.5
2023-03-07T01:39:06.242Z,988.5
2023-03-07T01:49:06.221Z,988.4
2023-03-07T01:59:06.189Z,988.3
2023-03-07T02:09:06.155Z,988.2
2023-03-07T02:19:06.138Z,988
2023-03-07T02:29:06.116Z,987.9
2023-03-07T02:39:06.083Z,987.9
2023-03-07T02:49:06.067Z,987.8
2023-03-07T02:59:06.034Z,987.7
2023-03-07T03:09:06.017Z,987.6
2023-03-07T03:19:05.998Z,987.6
2023-03-07T03:29:05.964Z,987.6
2023-03-07T03:39:05.945Z,987.5
2023-03-07T03:49:05.916Z,987.5
2023-03-07T03:59:05.896Z,987.4
2023-03-07T04:09:05.880Z,987.3
2023-03-07T04:19:05.850Z,987.2
2023-03-07T04:29:05.823Z,987.1
2023-03-07T04:39:05.945Z,986.9
2023-03-07T04:49:04.311Z,986.7
2023-03-07T04:59:04.308Z,986.7
2023-03-07T05:09:04.257Z,986.6
2023-03-07T05:19:04.264Z,986.5
2023-03-07T05:29:04.215Z,986.4
2023-03-07T05:39:04.199Z,986.4
2023-03-07T05:49:04.156Z,986.4
2023-03-07T05:59:04.149Z,986.4
2023-03-07T06:09:04.128Z,986.3
2023-03-07T06:19:04.094Z,986.3
2023-03-07T06:29:04.072Z,986.3
2023-03-07T06:39:04.096Z,986.3
2023-03-07T06:49:04.016Z,986.2
2023-03-07T06:59:03.995Z,986.1
2023-03-07T07:09:03.976Z,986.1
2023-03-07T07:19:03.970Z,986.1
2023-03-07T07:29:03.935Z,986.1
2023-03-07T07:39:03.907Z,986.1
2023-03-07T07:49:03.879Z,986.1
2023-03-07T07:59:03.884Z,986.1
2023-03-07T08:09:03.876Z,986.1
2023-03-07T08:19:03.861Z,986.1
2023-03-07T08:29:03.854Z,986.2
2023-03-07T08:39:03.767Z,986.2
2023-03-07T08:49:03.717Z,986.2
2023-03-07T08:59:03.717Z,986.1
2023-03-07T09:09:03.780Z,986.1
2023-03-07T09:19:03.656Z,986
2023-03-07T09:29:03.609Z,986
2023-03-07T09:39:03.597Z,986
2023-03-07T09:49:03.557Z,986
2023-03-07T09:59:03.556Z,986
2023-03-07T10:09:03.521Z,985.9
2023-03-07T10:19:03.558Z,985.8
2023-03-07T10:29:03.462Z,985.7
2023-03-07T10:39:03.443Z,985.7
2023-03-07T10:49:03.409Z,985.8
2023-03-07T10:59:03.385Z,985.8
2023-03-07T11:09:03.340Z,985.7
2023-03-07T11:19:03.454Z,985.7
2023-03-07T11:29:03.279Z,985.7
2023-03-07T11:39:03.413Z,985.7
2023-03-07T11:49:03.248Z,985.6
2023-03-07T11:59:03.212Z,985.6
2023-03-07T12:09:03.216Z,985.7
2023-03-07T12:19:03.185Z,985.7
2023-03-07T12:29:03.206Z,985.7
2023-03-07T12:39:03.136Z,985.7
2023-03-07T12:49:03.161Z,985.6
2023-03-07T12:59:03.210Z,985.6
2023-03-07T13:09:03.056Z,985.6
2023-03-07T13:19:03.011Z,985.7
2023-03-07T13:29:02.983Z,985.6
2023-03-07T13:39:02.968Z,985.6
2023-03-07T13:49:03.076Z,985.6
2023-03-07T13:59:02.917Z,985.7
2023-03-07T14:09:02.963Z,985.6
2023-03-07T14:19:02.896Z,985.7
2023-03-07T14:39:02.824Z,985.9
2023-03-07T14:49:02.840Z,986
2023-03-07T14:59:02.803Z,986
2023-03-07T15:09:02.755Z,986.1
2023-03-07T15:19:02.728Z,986.1
2023-03-07T15:29:02.718Z,986.2
2023-03-07T15:39:02.705Z,986.3
2023-03-07T15:49:02.669Z,986.3
2023-03-07T15:59:02.680Z,986.4
2023-03-07T16:09:02.634Z,986.4
2023-03-07T16:19:02.617Z,986.5
2023-03-07T16:29:02.569Z,986.5
2023-03-07T16:39:02.529Z,986.6
2023-03-07T16:49:02.684Z,986.7
2023-03-07T17:09:02.484Z,986.9
2023-03-07T17:19:02.512Z,987.1
2023-03-07T17:29:02.423Z,987.2
2023-03-07T17:39:02.433Z,987.3
2023-03-07T17:49:02.382Z,987.4
2023-03-07T17:59:02.384Z,987.6
2023-03-07T18:09:02.388Z,987.7
2023-03-07T18:19:02.352Z,987.8
2023-03-07T18:29:02.303Z,987.9
2023-03-07T18:39:02.302Z,987.9
2023-03-07T18:49:02.284Z,988
2023-03-07T18:59:02.216Z,988.1
2023-03-07T19:09:02.217Z,988.1
2023-03-07T19:19:02.187Z,988.2
2023-03-07T19:29:02.214Z,988.3
2023-03-07T19:39:02.147Z,988.5
2023-03-07T19:49:02.189Z,988.7
2023-03-07T19:59:02.130Z,988.9
2023-03-07T20:09:02.081Z,989.1
2023-03-07T20:19:02.121Z,989.2
2023-03-07T20:29:02.088Z,989.3
2023-03-07T20:39:02.026Z,989.3
2023-03-07T20:49:02.000Z,989.4
2023-03-07T20:59:02.008Z,989.4
2023-03-07T21:09:02.010Z,989.3
2023-03-07T21:19:01.949Z,989.3
2023-03-07T21:29:01.905Z,989.4
2023-03-07T21:39:01.895Z,989.5
2023-03-07T21:49:01.882Z,989.5
2023-03-07T21:59:01.851Z,989.6
2023-03-07T22:09:01.837Z,989.7
2023-03-07T22:19:01.845Z,989.8
2023-03-07T22:29:01.772Z,989.8
2023-03-07T22:39:01.775Z,989.9
2023-03-07T22:49:01.754Z,989.9
2023-03-07T22:59:01.726Z,989.9
2023-03-07T23:09:01.697Z,989.9
2023-03-07T23:19:01.686Z,989.8
2023-03-07T23:29:01.658Z,989.8
2023-03-07T23:39:01.637Z,989.8
2023-03-07T23:49:01.602Z,989.7
2023-03-07T23:59:01.578Z,989.7
